createdAt,value
2022-10-24T00:02:25.303Z,90.70
2022-10-24T00:04:52.726Z,90.50
2022-10-24T00:07:20.166Z,90.50
2022-10-24T00:09:47.719Z,90.70
2022-10-24T00:12:15.219Z,91.00
2022-10-24T00:14:42.755Z,91.10
2022-10-24T00:17:10.222Z,92.30
2022-10-24T00:19:37.626Z,92.00
2022-10-24T00:22:05.178Z,90.80
2022-10-24T00:24:32.729Z,91.90
2022-10-24T00:27:00.113Z,91.60
2022-10-24T00:29:27.735Z,91.60
2022-10-24T00:31:55.194Z,91.90
2022-10-24T00:34:22.798Z,91.90
2022-10-24T00:36:50.428Z,91.90
2022-10-24T00:39:17.889Z,91.20
2022-10-24T00:41:45.889Z,91.40
2022-10-24T00:44:23.549Z,91.50
2022-10-24T00:47:08.198Z,90.20
2022-10-24T00:49:50.948Z,90.30
2022-10-24T00:52:23.850Z,90.30
2022-10-24T00:54:53.346Z,90.40
2022-10-24T00:57:26.541Z,90.20
2022-10-24T00:59:58.209Z,90.10
2022-10-24T01:02:26.266Z,90.20
2022-10-24T01:04:56.939Z,91.90
2022-10-24T01:07:43.655Z,91.00
2022-10-24T01:10:22.720Z,90.10
2022-10-24T01:13:13.130Z,90.40
2022-10-24T01:16:06.036Z,90.00
2022-10-24T01:18:42.984Z,89.90
2022-10-24T01:21:42.562Z,90.00
2022-10-24T01:24:25.036Z,89.80
2022-10-24T01:27:17.345Z,90.00
2022-10-24T01:30:02.210Z,89.90
2022-10-24T01:32:35.759Z,89.70
2022-10-24T01:35:14.486Z,89.80
2022-10-24T01:37:45.748Z,90.20
2022-10-24T01:40:30.528Z,90.10
2022-10-24T01:43:03.118Z,89.70
2022-10-24T01:45:35.073Z,89.80
2022-10-24T01:48:06.112Z,90.10
2022-10-24T01:50:36.644Z,90.10
2022-10-24T01:53:07.484Z,90.00
2022-10-24T01:55:36.417Z,90.00
2022-10-24T01:58:03.931Z,91.10
2022-10-24T02:00:31.519Z,91.60
2022-10-24T02:03:06.641Z,91.60
2022-10-24T02:05:48.237Z,89.70
2022-10-24T02:08:21.848Z,88.60
2022-10-24T02:10:54.862Z,89.00
2022-10-24T02:13:52.368Z,89.50
2022-10-24T02:16:20.985Z,88.30
2022-10-24T02:18:51.396Z,89.70
2022-10-24T02:21:34.006Z,90.30
2022-10-24T02:24:18.359Z,90.10
2022-10-24T02:27:06.113Z,88.00
2022-10-24T02:29:52.792Z,88.60
2022-10-24T02:32:26.878Z,87.90
2022-10-24T02:34:55.502Z,88.20
2022-10-24T02:37:25.418Z,88.80
2022-10-24T02:39:53.764Z,88.10
2022-10-24T02:42:22.698Z,89.10
2022-10-24T02:44:50.353Z,88.20
2022-10-24T02:47:20.944Z,90.20
2022-10-24T02:49:48.844Z,87.70
2022-10-24T02:52:16.612Z,90.50
2022-10-24T02:54:44.214Z,90.60
2022-10-24T02:57:13.607Z,90.60
2022-10-24T02:59:41.274Z,88.70
2022-10-24T03:02:08.846Z,90.20
2022-10-24T03:04:36.434Z,89.80
2022-10-24T03:07:03.952Z,90.00
2022-10-24T03:09:31.408Z,88.50
2022-10-24T03:11:59.033Z,87.70
2022-10-24T03:14:26.548Z,88.00
2022-10-24T03:16:54.058Z,89.10
2022-10-24T03:19:21.586Z,90.80
2022-10-24T03:21:49.736Z,89.30
2022-10-24T03:24:26.745Z,88.70
2022-10-24T03:27:04.909Z,86.80
2022-10-24T03:29:32.396Z,89.50
2022-10-24T03:31:59.841Z,89.30
2022-10-24T03:34:27.597Z,88.20
2022-10-24T03:36:54.953Z,89.20
2022-10-24T03:39:22.301Z,88.00
2022-10-24T03:41:49.603Z,86.00
2022-10-24T03:44:17.008Z,85.80
2022-10-24T03:46:45.185Z,86.50
2022-10-24T03:49:12.731Z,86.40
2022-10-24T03:51:42.517Z,86.90
2022-10-24T03:54:13.764Z,87.20
2022-10-24T03:56:48.965Z,85.50
2022-10-24T03:59:19.823Z,84.80
2022-10-24T04:01:50.323Z,85.60
2022-10-24T04:04:20.877Z,85.20
2022-10-24T04:06:50.635Z,85.10
2022-10-24T04:09:18.247Z,86.90
2022-10-24T04:11:45.677Z,85.10
2022-10-24T04:14:13.348Z,85.10
2022-10-24T04:16:41.842Z,85.50
2022-10-24T04:19:10.833Z,85.10
2022-10-24T04:21:38.399Z,85.70
2022-10-24T04:24:06.117Z,85.10
2022-10-24T04:26:33.622Z,85.30
2022-10-24T04:29:01.175Z,84.70
2022-10-24T04:31:31.286Z,86.40
2022-10-24T04:33:58.785Z,85.70
2022-10-24T04:36:27.851Z,85.00
2022-10-24T04:38:57.369Z,84.20
2022-10-24T04:41:27.140Z,83.70
2022-10-24T04:43:55.240Z,83.50
2022-10-24T04:46:23.971Z,85.50
2022-10-24T04:48:53.611Z,84.20
2022-10-24T04:51:22.851Z,84.00
2022-10-24T04:53:54.107Z,84.60
2022-10-24T04:56:25.067Z,84.60
2022-10-24T04:58:52.736Z,84.90
2022-10-24T05:01:20.329Z,84.60
2022-10-24T05:03:48.609Z,84.40
2022-10-24T05:06:16.308Z,83.60
2022-10-24T05:08:45.976Z,84.60
2022-10-24T05:11:13.664Z,85.30
2022-10-24T05:13:42.397Z,84.20
2022-10-24T05:16:10.224Z,85.00
2022-10-24T05:18:37.889Z,84.80
2022-10-24T05:21:06.902Z,84.20
2022-10-24T05:23:34.899Z,84.90
2022-10-24T05:26:02.521Z,83.60
2022-10-24T05:28:30.174Z,83.30
2022-10-24T05:30:57.968Z,84.40
2022-10-24T05:33:25.498Z,83.30
2022-10-24T05:35:53.422Z,83.00
2022-10-24T05:38:21.229Z,83.40
2022-10-24T05:40:53.539Z,83.00
2022-10-24T05:43:21.189Z,83.50
2022-10-24T05:48:18.675Z,82.10
2022-10-24T05:50:46.235Z,84.10
2022-10-24T05:53:13.696Z,82.50
2022-10-24T05:55:43.800Z,82.60
2022-10-24T05:58:12.564Z,82.60
2022-10-24T06:00:41.258Z,83.20
2022-10-24T06:03:11.328Z,82.90
2022-10-24T06:05:38.875Z,81.90
2022-10-24T06:08:07.946Z,81.70
2022-10-24T06:10:35.814Z,80.60
2022-10-24T06:13:03.542Z,82.30
2022-10-24T06:15:31.136Z,83.10
2022-10-24T06:17:58.688Z,82.50
2022-10-24T06:20:26.835Z,82.40
2022-10-24T06:22:54.416Z,82.40
2022-10-24T06:25:22.991Z,82.00
2022-10-24T06:27:50.678Z,83.20
2022-10-24T06:30:18.211Z,82.20
2022-10-24T06:32:47.389Z,81.90
2022-10-24T06:35:15.939Z,82.10
2022-10-24T06:37:47.139Z,82.00
2022-10-24T06:40:17.109Z,81.90
2022-10-24T06:42:44.943Z,81.10
2022-10-24T06:45:12.903Z,81.40
2022-10-24T06:47:40.464Z,81.00
2022-10-24T06:50:08.229Z,81.70
2022-10-24T06:52:37.291Z,81.70
2022-10-24T06:55:06.802Z,81.00
2022-10-24T06:57:34.294Z,81.20
2022-10-24T07:00:02.437Z,82.60
2022-10-24T07:02:31.181Z,81.30
2022-10-24T07:04:59.158Z,81.40
2022-10-24T07:07:27.161Z,82.30
2022-10-24T07:09:58.099Z,81.90
2022-10-24T07:12:26.034Z,81.00
2022-10-24T07:14:54.921Z,81.00
2022-10-24T07:17:22.445Z,81.20
2022-10-24T07:19:54.431Z,81.10
2022-10-24T07:22:22.444Z,80.50
2022-10-24T07:24:55.771Z,80.90
2022-10-24T07:27:24.325Z,80.60
2022-10-24T07:29:52.474Z,80.50
2022-10-24T07:32:21.153Z,80.80
2022-10-24T07:34:48.623Z,81.00
2022-10-24T07:37:18.630Z,81.40
2022-10-24T07:39:47.794Z,80.60
2022-10-24T07:42:16.933Z,80.70
2022-10-24T07:44:44.713Z,80.60
2022-10-24T07:47:12.645Z,81.00
2022-10-24T07:49:40.663Z,81.40
2022-10-24T07:52:09.176Z,81.20
2022-10-24T07:54:37.576Z,81.00
2022-10-24T07:57:05.675Z,81.10
2022-10-24T07:59:48.505Z,81.90
2022-10-24T08:02:17.720Z,81.90
2022-10-24T08:04:45.642Z,80.70
2022-10-24T08:07:13.730Z,81.30
2022-10-24T08:09:43.399Z,80.80
2022-10-24T08:12:12.477Z,80.40
2022-10-24T08:14:41.698Z,80.80
2022-10-24T08:17:10.765Z,80.40
2022-10-24T08:19:44.162Z,81.20
2022-10-24T08:22:13.403Z,80.60
2022-10-24T08:24:43.970Z,81.40
2022-10-24T08:27:11.857Z,78.80
2022-10-24T08:29:39.602Z,80.80
2022-10-24T08:32:07.295Z,80.70
2022-10-24T08:34:34.830Z,80.10
2022-10-24T08:37:02.422Z,80.50
2022-10-24T08:39:33.466Z,80.60
2022-10-24T08:42:12.600Z,80.30
2022-10-24T08:44:42.907Z,80.10
2022-10-24T08:47:44.704Z,80.00
2022-10-24T08:50:25.009Z,79.20
2022-10-24T08:53:13.000Z,79.40
2022-10-24T08:55:49.284Z,79.10
2022-10-24T08:58:40.700Z,80.60
2022-10-24T09:01:17.553Z,79.50
2022-10-24T09:03:57.485Z,79.60
2022-10-24T09:06:29.843Z,79.50
2022-10-24T09:09:02.237Z,79.10
2022-10-24T09:11:41.841Z,80.90
2022-10-24T09:14:26.127Z,79.40
2022-10-24T09:17:00.063Z,79.40
2022-10-24T09:19:30.385Z,79.30
2022-10-24T09:22:00.183Z,79.90
2022-10-24T09:24:34.302Z,79.70
2022-10-24T09:27:04.551Z,80.40
2022-10-24T09:29:33.880Z,79.50
2022-10-24T09:32:02.309Z,79.50
2022-10-24T09:34:29.752Z,79.70
2022-10-24T09:36:57.796Z,80.40
2022-10-24T09:39:30.352Z,79.30
2022-10-24T09:41:59.727Z,79.20
2022-10-24T09:44:44.095Z,80.00
2022-10-24T09:47:25.882Z,80.70
2022-10-24T09:49:53.787Z,80.00
2022-10-24T09:52:29.499Z,80.30
2022-10-24T09:55:18.912Z,81.20
2022-10-24T09:57:47.103Z,80.10
2022-10-24T10:00:34.835Z,81.40
2022-10-24T10:03:23.429Z,82.50
2022-10-24T10:05:54.586Z,80.80
2022-10-24T10:08:24.565Z,80.80
2022-10-24T10:11:12.465Z,80.80
2022-10-24T10:13:51.856Z,81.40
2022-10-24T10:16:29.266Z,80.70
2022-10-24T10:19:18.461Z,80.40
2022-10-24T10:22:02.527Z,80.30
2022-10-24T10:24:35.896Z,80.10
2022-10-24T10:27:31.432Z,81.10
2022-10-24T10:30:21.958Z,80.00
2022-10-24T10:33:24.140Z,80.10
2022-10-24T10:36:25.303Z,79.90
2022-10-24T10:39:12.918Z,79.30
2022-10-24T10:41:49.187Z,78.90
2022-10-24T10:44:58.211Z,78.70
2022-10-24T10:47:47.483Z,78.70
2022-10-24T10:50:38.879Z,78.70
2022-10-24T10:53:36.584Z,79.00
2022-10-24T10:56:23.095Z,79.00
2022-10-24T10:59:11.613Z,78.90
2022-10-24T11:02:03.611Z,78.70
2022-10-24T11:04:54.220Z,78.80
2022-10-24T11:07:30.952Z,78.60
2022-10-24T11:10:03.536Z,77.70
2022-10-24T11:12:41.053Z,78.10
2022-10-24T11:15:28.805Z,78.10
2022-10-24T11:18:06.302Z,78.20
2022-10-24T11:20:38.604Z,78.50
2022-10-24T11:23:30.821Z,79.00
2022-10-24T11:26:15.917Z,78.60
2022-10-24T11:29:22.382Z,79.60
2022-10-24T11:32:05.335Z,79.20
2022-10-24T11:34:54.940Z,79.70
2022-10-24T11:37:42.159Z,80.40
2022-10-24T11:40:17.145Z,81.00
2022-10-24T11:43:05.988Z,80.90
2022-10-24T11:45:58.991Z,80.50
2022-10-24T11:48:58.764Z,80.20
2022-10-24T11:51:31.450Z,80.30
2022-10-24T11:54:09.408Z,80.70
2022-10-24T11:56:47.282Z,81.10
2022-10-24T11:59:24.222Z,82.30
2022-10-24T12:01:56.337Z,80.60
2022-10-24T12:04:51.885Z,81.40
2022-10-24T12:07:40.519Z,80.10
2022-10-24T12:10:10.766Z,80.00
2022-10-24T12:13:02.930Z,79.60
2022-10-24T12:16:13.980Z,79.60
2022-10-24T12:19:04.375Z,79.20
2022-10-24T12:21:44.874Z,79.60
2022-10-24T12:24:32.946Z,79.70
2022-10-24T12:27:03.498Z,79.90
2022-10-24T12:29:34.056Z,80.60
2022-10-24T12:32:43.208Z,81.10
2022-10-24T12:35:46.617Z,80.10
2022-10-24T12:38:34.847Z,79.60
2022-10-24T12:41:06.879Z,80.20
2022-10-24T12:43:35.951Z,79.40
2022-10-24T12:46:21.825Z,79.10
2022-10-24T12:49:11.504Z,80.30
2022-10-24T12:51:42.049Z,80.00
2022-10-24T12:54:12.431Z,80.60
2022-10-24T12:56:52.584Z,81.80
2022-10-24T12:59:26.175Z,81.30
2022-10-24T13:02:12.573Z,81.00
2022-10-24T13:04:45.961Z,82.30
2022-10-24T13:07:25.313Z,81.70
2022-10-24T13:10:18.968Z,82.20
2022-10-24T13:19:24.210Z,82.70
2022-10-24T13:21:57.593Z,82.90
2022-10-24T13:24:28.479Z,82.80
2022-10-24T13:26:57.299Z,83.40
2022-10-24T13:29:27.401Z,83.00
2022-10-24T13:32:18.679Z,82.80
2022-10-24T13:34:52.400Z,82.80
2022-10-24T13:37:44.700Z,82.60
2022-10-24T13:40:41.810Z,82.30
2022-10-24T13:43:21.322Z,81.90
2022-10-24T13:46:01.383Z,82.10
2022-10-24T13:48:32.152Z,82.90
2022-10-24T13:51:05.287Z,83.20
2022-10-24T13:53:44.077Z,82.20
2022-10-24T14:01:06.687Z,82.70
2022-10-24T14:07:53.009Z,83.00
2022-10-24T14:10:21.626Z,83.00
2022-10-24T14:12:52.066Z,82.70
2022-10-24T14:15:22.377Z,82.80
2022-10-24T14:22:48.659Z,82.60
2022-10-24T14:30:17.308Z,82.50
2022-10-24T14:32:44.713Z,82.80
2022-10-24T14:35:13.728Z,83.00
2022-10-24T14:42:18.800Z,83.80
2022-10-24T14:44:47.276Z,83.10
2022-10-24T14:47:28.773Z,83.30
2022-10-24T14:50:00.290Z,82.60
2022-10-24T14:53:04.941Z,82.30
2022-10-24T15:00:07.607Z,82.10
2022-10-24T15:02:43.033Z,82.30
2022-10-24T15:06:18.518Z,82.80
2022-10-24T15:13:07.754Z,82.20
2022-10-24T15:15:49.494Z,82.30
2022-10-24T15:18:27.706Z,82.20
2022-10-24T15:21:02.430Z,81.90
2022-10-24T15:23:33.549Z,81.60
2022-10-24T15:30:41.434Z,81.40
2022-10-24T15:33:10.169Z,82.30
2022-10-24T15:35:41.031Z,82.30
2022-10-24T15:38:15.422Z,82.70
2022-10-24T15:40:44.454Z,82.00
2022-10-24T15:43:14.600Z,82.50
2022-10-24T15:45:42.027Z,81.60
2022-10-24T15:48:09.797Z,82.10
2022-10-24T15:50:42.203Z,81.50
2022-10-24T15:53:17.058Z,81.60
2022-10-24T15:55:44.459Z,81.70
2022-10-24T15:58:16.781Z,82.00
2022-10-24T16:00:44.572Z,81.90
2022-10-24T16:03:16.893Z,81.90
2022-10-24T16:05:48.829Z,81.90
2022-10-24T16:08:18.834Z,81.90
2022-10-24T16:10:50.483Z,82.00
2022-10-24T16:13:20.018Z,81.90
2022-10-24T16:15:48.487Z,82.10
2022-10-24T16:18:16.071Z,82.20
2022-10-24T16:25:29.564Z,82.10
2022-10-24T16:27:57.461Z,82.20
2022-10-24T16:30:27.426Z,82.40
2022-10-24T16:32:55.301Z,82.50
2022-10-24T16:35:32.352Z,82.50
2022-10-24T16:38:01.672Z,83.20
2022-10-24T16:40:30.005Z,83.00
2022-10-24T16:42:58.711Z,82.70
2022-10-24T16:45:26.826Z,83.10
2022-10-24T16:47:54.233Z,83.10
2022-10-24T16:50:24.968Z,85.30
2022-10-24T16:52:54.886Z,83.30
2022-10-24T16:55:22.705Z,83.20
2022-10-24T16:57:50.257Z,83.50
2022-10-24T17:00:20.662Z,84.70
2022-10-24T17:02:51.213Z,83.50
2022-10-24T17:05:22.776Z,83.50
2022-10-24T17:07:50.663Z,84.20
2022-10-24T17:10:20.763Z,84.00
2022-10-24T17:12:52.476Z,84.70
2022-10-24T17:15:22.273Z,83.50
2022-10-24T17:17:50.514Z,84.60
2022-10-24T17:20:18.109Z,84.50
2022-10-24T17:22:46.710Z,84.10
2022-10-24T17:25:19.800Z,85.00
2022-10-24T17:27:48.381Z,84.30
2022-10-24T17:30:22.926Z,84.70
2022-10-24T17:32:51.093Z,84.60
2022-10-24T17:35:20.857Z,84.20
2022-10-24T17:37:57.338Z,84.20
2022-10-24T17:40:28.108Z,85.10
2022-10-24T17:42:55.892Z,84.40
2022-10-24T17:45:25.022Z,84.50
2022-10-24T17:47:52.578Z,84.60
2022-10-24T17:50:20.108Z,84.90
2022-10-24T17:52:51.281Z,84.80
2022-10-24T17:58:12.364Z,85.20
2022-10-24T18:00:40.410Z,85.00
2022-10-24T18:03:08.707Z,85.30
2022-10-24T18:05:38.374Z,85.40
2022-10-24T18:08:08.909Z,86.00
2022-10-24T18:10:41.256Z,85.50
2022-10-24T18:19:00.271Z,85.60
2022-10-24T18:25:59.584Z,85.70
2022-10-24T18:28:26.986Z,86.00
2022-10-24T18:32:24.352Z,86.70
2022-10-24T18:39:09.259Z,86.00
2022-10-24T18:41:46.768Z,86.10
2022-10-24T18:44:33.426Z,85.90
2022-10-24T18:47:06.965Z,86.30
2022-10-24T18:49:35.688Z,86.30
2022-10-24T18:52:18.644Z,86.20
2022-10-24T18:55:12.548Z,87.00
2022-10-24T18:57:40.420Z,86.50
2022-10-24T19:00:08.496Z,86.80
2022-10-24T19:02:49.384Z,86.50
2022-10-24T19:05:44.382Z,86.60
2022-10-24T19:08:14.407Z,86.40
2022-10-24T19:10:42.868Z,88.30
2022-10-24T19:13:19.766Z,87.90
2022-10-24T19:15:58.056Z,90.00
2022-10-24T19:18:28.272Z,86.80
2022-10-24T19:21:20.922Z,87.50
2022-10-24T19:23:49.867Z,86.60
2022-10-24T19:26:17.566Z,87.00
2022-10-24T19:28:45.258Z,90.50
2022-10-24T19:31:15.065Z,90.50
2022-10-24T19:33:44.228Z,86.60
2022-10-24T19:36:14.517Z,90.10
2022-10-24T19:38:46.550Z,90.10
2022-10-24T19:41:16.400Z,90.00
2022-10-24T19:43:43.846Z,89.40
2022-10-24T19:46:20.117Z,88.40
2022-10-24T19:48:49.314Z,89.90
2022-10-24T19:51:18.847Z,87.40
2022-10-24T19:53:48.021Z,88.20
2022-10-24T19:56:23.945Z,87.40
2022-10-24T19:58:54.013Z,87.60
2022-10-24T20:01:24.804Z,87.50
2022-10-24T20:03:52.703Z,87.90
2022-10-24T20:06:20.155Z,89.90
2022-10-24T20:08:48.988Z,89.70
2022-10-24T20:11:16.855Z,88.40
2022-10-24T20:13:44.511Z,89.50
2022-10-24T20:16:13.400Z,88.60
2022-10-24T20:18:43.343Z,88.70
2022-10-24T20:21:14.002Z,88.30
2022-10-24T20:23:41.934Z,89.40
2022-10-24T20:26:14.525Z,90.20
2022-10-24T20:28:44.463Z,88.20
2022-10-24T20:31:32.551Z,88.90
2022-10-24T20:34:06.786Z,89.30
2022-10-24T20:36:38.204Z,88.70
2022-10-24T20:39:11.731Z,90.50
2022-10-24T20:41:39.748Z,90.20
2022-10-24T20:44:07.570Z,91.10
2022-10-24T20:46:36.854Z,91.60
2022-10-24T20:49:04.830Z,90.20
2022-10-24T20:51:32.996Z,91.10
2022-10-24T20:54:08.185Z,91.50
2022-10-24T20:56:41.808Z,90.30
2022-10-24T20:59:13.573Z,89.40
2022-10-24T21:01:44.435Z,89.50
2022-10-24T21:04:14.703Z,91.70
2022-10-24T21:06:44.695Z,91.90
2022-10-24T21:09:12.089Z,91.00
2022-10-24T21:11:39.751Z,90.50
2022-10-24T21:14:10.545Z,90.60
2022-10-24T21:16:37.989Z,89.80
2022-10-24T21:19:06.084Z,91.00
2022-10-24T21:21:33.922Z,92.40
2022-10-24T21:24:04.457Z,92.50
2022-10-24T21:26:40.424Z,91.90
2022-10-24T21:29:09.157Z,90.70
2022-10-24T21:31:51.756Z,91.20
2022-10-24T21:34:19.477Z,90.80
2022-10-24T21:36:50.840Z,91.40
2022-10-24T21:39:18.387Z,94.60
2022-10-24T21:41:45.859Z,91.70
2022-10-24T21:44:14.605Z,91.60
2022-10-24T21:46:42.398Z,90.40
2022-10-24T21:49:10.494Z,91.60
2022-10-24T21:51:39.406Z,90.10
2022-10-24T21:54:20.083Z,90.70
2022-10-24T21:56:47.580Z,90.60
2022-10-24T21:59:17.501Z,91.40
2022-10-24T22:01:46.880Z,90.70
2022-10-24T22:04:15.416Z,90.40
2022-10-24T22:06:43.732Z,91.20
2022-10-24T22:09:15.589Z,90.20
2022-10-24T22:11:43.524Z,90.70
2022-10-24T22:14:13.237Z,90.80
2022-10-24T22:16:41.611Z,90.40
2022-10-24T22:19:10.903Z,90.10
2022-10-24T22:21:41.596Z,90.80
2022-10-24T22:24:14.327Z,90.50
2022-10-24T22:26:42.327Z,90.70
2022-10-24T22:29:11.560Z,91.30
2022-10-24T22:31:39.357Z,90.90
2022-10-24T22:34:07.650Z,90.40
2022-10-24T22:37:16.012Z,91.80
2022-10-24T22:39:43.609Z,90.20
2022-10-24T22:42:19.120Z,93.20
2022-10-24T22:44:48.439Z,91.20
2022-10-24T22:47:21.812Z,90.90
2022-10-24T22:50:14.153Z,90.10
2022-10-24T22:52:41.848Z,90.20
2022-10-24T22:55:25.147Z,90.30
2022-10-24T22:57:52.916Z,90.30
2022-10-24T23:00:20.733Z,90.40
2022-10-24T23:02:51.141Z,90.30
2022-10-24T23:05:35.457Z,90.30
2022-10-24T23:08:10.861Z,90.40
2022-10-24T23:10:40.035Z,90.60
2022-10-24T23:13:09.400Z,90.90
2022-10-24T23:15:37.114Z,90.80
2022-10-24T23:18:04.943Z,91.20
2022-10-24T23:20:37.619Z,91.40
2022-10-24T23:23:16.156Z,90.70
2022-10-24T23:25:52.269Z,90.50
2022-10-24T23:28:28.510Z,90.60
2022-10-24T23:30:56.314Z,90.70
2022-10-24T23:33:29.373Z,91.50
2022-10-24T23:35:59.532Z,90.60
2022-10-24T23:38:27.368Z,90.50
2022-10-24T23:40:55.268Z,90.60
2022-10-24T23:43:23.275Z,90.90
2022-10-24T23:46:02.132Z,91.20
2022-10-24T23:48:38.533Z,90.50
2022-10-24T23:51:14.667Z,90.60
2022-10-24T23:53:53.706Z,91.00
2022-10-24T23:56:29.057Z,90.60
2022-10-24T23:58:56.564Z,90.60
